Tiempo atmosférico en la estación meteorológica de Bailo, Huesca (722 m.)



Fecha
DESCASC
Temp. máxima en grados centígrados (hora)
DESCASC
Temp. mínima en grados centígrados (hora)
DESCASC
Temp. media en grados centígrados
DESCASC
Racha de viento máxima en m/sg (hora)
DESCASC
Velocidad máxima media en intervalos de 10 minutos(hora)
DESCASC
Precipitaciones diarias en mm
DESCASC
Precipitaciones de 00:00 a 06:00 en mm
DESCASC
Precipitaciones de 06:00 a 12:00 en mm
DESCASC
Precipitaciones de 12:00 a 18:00 en mm
DESCASC
Precipitaciones de 18:00 a 24:00 en mm
DESCASC
23-06-2019 31.4 (18:10) 18 (06:30) 24.7 12.22 (23:40) 7.78 (04:50) 0 0 0 0 0
22-06-2019 27.6 (17:40) 8.6 (06:40) 18.1 8.61 (18:00) 4.72 (15:40) 0 0 0 0 0
21-06-2019 21.1 (18:00) 12.7 (23:59) 16.9 8.89 (02:10) 5.83 (03:50) 24.2 22.6 1.6 0 0
20-06-2019 25.8 (16:30) 13 (00:00) 19.4 8.61 (18:20) 5.56 (18:10) 10.6 0.6 0 0 10
19-06-2019 -- (--) -- (--) -- -- (--) -- (--) -- -- -- -- 0
18-06-2019 -- (--) -- (--) -- -- (--) -- (--) -- 0 0 0 --
17-06-2019 29.7 (18:10) 12.1 (00:00) 20.9 8.89 (23:40) 6.94 (23:40) 0 0 0 0 0
16-06-2019 26.6 (17:50) 7 (00:00) 16.8 6.94 (14:40) 3.89 (21:40) 0 0 0 0 0
15-06-2019 21.7 (17:30) 9.9 (00:00) 15.8 11.39 (15:10) 6.39 (15:20) 0 0 0 0 0
14-06-2019 24.2 (19:20) 12.2 (00:00) 18.2 9.17 (00:40) 6.67 (00:10) 1.6 0 0 1.6 0
13-06-2019 24.6 (17:00) 12 (00:00) 18.3 13.61 (18:00) 8.89 (21:10) 0 0 0 0 0
12-06-2019 19 (17:30) 3.1 (00:00) 11 8.06 (22:50) 5 (23:00) 0 0 0 0 0
11-06-2019 15 (15:50) 6.8 (00:00) 10.9 14.72 (14:00) 10.28 (14:00) 0.6 0.4 0.2 0 0
10-06-2019 18.4 (14:40) 9.3 (00:00) 13.8 11.11 (21:40) 7.5 (18:50) 0 0 0 0 0
09-06-2019 25.9 (18:10) 12.8 (00:00) 19.3 10.83 (03:00) 7.5 (02:50) 0 0 0 0 0
08-06-2019 23.4 (16:40) 5.1 (00:00) 14.2 11.94 (22:20) 8.06 (21:50) 0 0 0 0 0
07-06-2019 19 (18:10) 9.6 (00:00) 14.3 15.56 (03:40) 10 (03:50) 3.8 0.6 3.2 0 0
06-06-2019 21.4 (17:40) 6.5 (00:00) 13.9 17.5 (17:10) 10.83 (17:20) 0 0 0 0 0
05-06-2019 14.4 (00:00) 8 (00:00) 11.2 20.28 (09:50) 11.94 (09:50) 27.8 0.8 27 0 0
04-06-2019 29.3 (17:40) 14.4 (00:00) 21.8 12.78 (04:20) 8.61 (10:10) 1.8 0 0 0 1.8
03-06-2019 29.5 (17:00) 16.7 (00:00) 23.1 11.11 (00:10) 7.5 (00:20) 0.2 0.2 0 0 0
02-06-2019 30.7 (17:40) 14.9 (00:00) 22.8 8.33 (23:59) 5 (22:50) 0 0 0 0 0
01-06-2019 28.9 (17:10) 14 (00:00) 21.4 8.06 (04:20) 5.83 (04:20) 0 0 0 0 0
31-05-2019 27.3 (18:20) 8.8 (00:00) 18 6.94 (17:40) 4.17 (17:30) 0 0 0 0 0
30-05-2019 27.1 (18:10) 6.3 (00:00) 16.7 9.72 (20:00) 6.39 (19:50) 0 0 0 0 0
29-05-2019 16.9 (17:20) 8.1 (00:00) 12.5 15.83 (16:10) 11.11 (17:40) 0 0 0 0 0
28-05-2019 15.6 (15:10) 8.7 (00:00) 12.2 16.67 (14:40) 11.94 (12:50) 0 0 0 0 0
27-05-2019 20.9 (14:30) 7.2 (00:00) 14 16.94 (23:10) 12.22 (16:20) 0 0 0 0 0
26-05-2019 18.3 (17:40) 7.5 (00:00) 12.9 14.17 (17:00) 10.56 (17:00) 0 0 0 0 0

Gráficas

Temp. máximas Temp. mínimas Temp. medias Precipitaciones Rachas de viento máximas Velocidades máximas media en intervalos de 10 minutos

Datos horarios

Fecha y hora oficial Temperatura (ºC) Velocidad del viento (km/h) Dirección del viento Racha (km/h) Dirección de racha Precipitación (mm) Presión (hPa) Tendencia (hPa) Humedad (%)
2019-06-24 23:00:00 24.8 21 Sur 34 Sudoeste 0 -- -- 36
2019-06-24 22:00:00 25.5 16 Sur 27 Sur 0 -- -- 37
2019-06-24 21:00:00 26.5 16 Sur 25 Sudeste 0 -- -- 35
2019-06-24 20:00:00 27.7 14 Sur 37 Sur 0 -- -- 33
2019-06-24 19:00:00 28.4 24 Sur 40 Sur 0 -- -- 29
2019-06-24 18:00:00 28.7 19 Sur 35 Sur 0 -- -- 28
2019-06-24 17:00:00 28.8 20 Sur 31 Sur 0 -- -- 27
2019-06-24 16:00:00 28.3 15 Sudeste 42 Sur 0 -- -- 27
2019-06-24 15:00:00 27.9 26 Sur 42 Sur 0 -- -- 27
2019-06-24 14:00:00 27.5 25 Sur 48 Sur 0 -- -- 27
2019-06-24 13:00:00 27.4 28 Sur 46 Sur 0 -- -- 26
2019-06-24 12:00:00 27.2 24 Sur 41 Sur 0 -- -- 30
2019-06-24 11:00:00 26 20 Sur 32 Sur 0 -- -- 35
2019-06-24 10:00:00 24.5 18 Sur 25 Sur 0 -- -- 40
2019-06-24 09:00:00 23.9 15 Sur 41 Sudeste 0 -- -- 40
2019-06-24 08:00:00 22.9 22 Sudeste 42 Sudeste 0 -- -- 39
2019-06-24 07:00:00 21.7 24 Sudeste 41 Sudeste 0 -- -- 39
2019-06-24 06:00:00 22.1 24 Sur 41 Sur 0 -- -- 37
2019-06-24 05:00:00 23.1 23 Sur 48 Sudeste 0 -- -- 36
2019-06-24 04:00:00 23.6 26 Sudeste 45 Sur 0 -- -- 35
2019-06-24 03:00:00 23.6 22 Sur 36 Sur 0 -- -- 37
2019-06-24 02:00:00 23.9 19 Sur 33 Sur 0 -- -- 39
2019-06-24 01:00:00 24.4 14 Sudeste 33 Sudeste 0 -- -- 41
2019-06-24 00:00:00 25.8 21 Sur 44 Sur 0 -- -- 36
2019-06-23 23:00:00 25.3 17 Sur 25 Sur 0 -- -- 44
2019-06-23 22:00:00 26.5 15 Sur 22 Sur 0 -- -- 40
2019-06-23 21:00:00 28.3 15 Sur 22 Sur 0 -- -- 36
2019-06-23 20:00:00 29.2 12 Sudeste 24 Sudeste 0 -- -- 35
2019-06-23 19:00:00 30.2 10 Sudeste 25 Sudeste 0 -- -- 32
2019-06-23 18:00:00 31 14 Sudeste 24 Sudeste 0 -- -- 30
2019-06-23 17:00:00 30.1 10 Sur 26 Sur 0 -- -- 32
2019-06-23 16:00:00 30.3 12 Sur 24 Sur 0 -- -- 32
2019-06-23 15:00:00 29.7 18 Sur 36 Sur 0 -- -- 32
2019-06-23 14:00:00 28.9 21 Sur 37 Sur 0 -- -- 36
2019-06-23 13:00:00 27.9 22 Sur 41 Sur 0 -- -- 40
2019-06-23 12:00:00 25.9 23 Sur 34 Sur 0 -- -- 45
2019-06-23 11:00:00 24.9 19 Sur 28 Sur 0 -- -- 49
2019-06-23 10:00:00 23.2 18 Sur 31 Sudoeste 0 -- -- 49
2019-06-23 09:00:00 21.4 21 Sur 30 Sur 0 -- -- 53
2019-06-23 08:00:00 19.9 9 Este 31 Sur 0 -- -- 60
2019-06-23 07:00:00 18.4 18 Sur 34 Sur 0 -- -- 64
2019-06-23 06:00:00 18.5 21 Sur 34 Sur 0 -- -- 61
2019-06-23 05:00:00 18.7 26 Sur 39 Sur 0 -- -- 56
2019-06-23 04:00:00 19 22 Sur 32 Sur 0 -- -- 53
2019-06-23 03:00:00 19.7 4 Sudoeste 14 Sur 0 -- -- 49
2019-06-23 02:00:00 20.1 6 Sur 16 Sudeste 0 -- -- 48
2019-06-23 01:00:00 19.7 10 Sur 23 Sudeste 0 -- -- 49
2019-06-23 00:00:00 20.6 14 Este 25 Este 0 -- -- 46
2019-06-22 23:00:00 22.1 15 Sur 19 Sur 0 -- -- 40
2019-06-22 22:00:00 21.1 5 Sur 12 Sur 0 -- -- 47
2019-06-22 21:00:00 24.3 8 Sudoeste 13 Sudeste 0 -- -- 41
2019-06-22 20:00:00 26.3 9 Sudeste 18 Sudeste 0 -- -- 38
2019-06-22 19:00:00 27 9 Este 19 Este 0 -- -- 35
2019-06-22 18:00:00 27.5 15 Sudoeste 31 Oeste 0 -- -- 31
2019-06-22 17:00:00 27.1 10 Sudoeste 20 Sudoeste 0 -- -- 34
2019-06-22 16:00:00 26.4 11 Noroeste 28 Sudoeste 0 -- -- 38
2019-06-22 15:00:00 25.3 7 Este 21 Sur 0 -- -- 43
2019-06-22 14:00:00 25 9 Sur 23 Sudeste 0 -- -- 44
2019-06-22 13:00:00 23.8 12 Sudeste 17 Este 0 -- -- 45
2019-06-22 12:00:00 22.5 9 Este 14 Nordeste 0 -- -- 54
2019-06-22 11:00:00 19.5 3 Norte 7 Nordeste 0 -- -- 68
2019-06-22 10:00:00 15.5 3 Este 8 Este 0 -- -- 77
2019-06-22 09:00:00 12.9 3 Nordeste 5 Este 0 -- -- 84
2019-06-22 08:00:00 10.2 0 Calma 5 Noroeste 0 -- -- 92
2019-06-22 07:00:00 8.9 0 Calma 4 Sudoeste 0 -- -- 93
2019-06-22 06:00:00 8.7 2 Oeste 4 Sudoeste 0 -- -- 91
2019-06-22 05:00:00 9.1 0 Calma 6 Noroeste 0 -- -- 91
2019-06-22 04:00:00 9.8 4 Oeste 6 Sudoeste 0 -- -- 88
2019-06-22 03:00:00 11.1 5 Sudoeste 10 Sudoeste 0 -- -- 85
2019-06-22 02:00:00 11.5 4 Sur 8 Sur 0 -- -- 83
2019-06-22 01:00:00 12.2 5 Sur 8 Sudoeste 0 -- -- 82
2019-06-22 00:00:00 12.7 4 Sur 7 Sudeste 0 -- -- 82
2019-06-21 23:00:00 13.9 6 Sur 11 Nordeste 0 -- -- 79
2019-06-21 22:00:00 15.4 3 Oeste 22 Noroeste 0 -- -- 72
2019-06-21 21:00:00 18.2 14 Noroeste 24 Noroeste 0 -- -- 62
2019-06-21 20:00:00 20 14 Noroeste 23 Noroeste 0 -- -- 57
2019-06-21 19:00:00 20.8 17 Noroeste 26 Noroeste 0 -- -- 58
2019-06-21 18:00:00 21.1 12 Norte 27 Noroeste 0 -- -- 58
2019-06-21 17:00:00 20.4 17 Noroeste 28 Norte 0 -- -- 60
2019-06-21 16:00:00 19.4 17 Noroeste 25 Noroeste 0 -- -- 70
2019-06-21 15:00:00 18.7 12 Noroeste 19 Oeste 0 -- -- 70
2019-06-21 14:00:00 16.4 13 Noroeste 19 Noroeste 0 -- -- 77
2019-06-21 13:00:00 15 9 Noroeste 18 Norte 0 -- -- 86
2019-06-21 12:00:00 15.1 8 Norte 14 Norte 0 -- -- 90
2019-06-21 11:00:00 14.4 7 Norte 13 Noroeste 0 -- -- 96
2019-06-21 10:00:00 14 4 Noroeste 10 Noroeste 0 -- -- 98
2019-06-21 09:00:00 13.6 5 Norte 10 Noroeste 0.2 -- -- 97
2019-06-21 08:00:00 13.8 6 Noroeste 10 Norte 0 -- -- 98
2019-06-21 07:00:00 13.5 5 Sudeste 10 Sudeste 1.4 -- -- 97
2019-06-21 06:00:00 13.6 0 Calma 9 Este 1.6 -- -- 97
2019-06-21 05:00:00 13.6 6 Norte 10 Nordeste 5 -- -- 97
2019-06-21 04:00:00 13.7 7 Norte 31 Oeste 7.2 -- -- 97
2019-06-21 03:00:00 13.9 3 Noroeste 32 Oeste 4 -- -- 96
2019-06-21 02:00:00 14.1 8 Oeste 21 Oeste 0.2 -- -- 96
2019-06-21 01:00:00 14.3 8 Sudeste 13 Oeste 4.6 -- -- 95
2019-06-21 00:00:00 14.7 4 Sur 17 Sudoeste 7 -- -- 93
2019-06-20 23:00:00 15.7 5 Sudeste 17 Nordeste 1.4 -- -- 86
2019-06-20 22:00:00 16.7 14 Norte 24 Norte 1.6 -- -- 81
2019-06-20 21:00:00 18.4 12 Noroeste 24 Noroeste 0 -- -- 70
2019-06-20 20:00:00 20.9 14 Noroeste 20 Norte 0 -- -- 63
2019-06-20 19:00:00 22.1 15 Noroeste 31 Norte 0 -- -- 59
2019-06-20 18:00:00 22.8 16 Noroeste 27 Noroeste 0 -- -- 59
2019-06-20 17:00:00 25 17 Este 27 Nordeste 0 -- -- 52
2019-06-20 16:00:00 24.8 7 Norte 19 Norte 0 -- -- 53
2019-06-20 15:00:00 24.2 10 Noroeste 21 Noroeste 0 -- -- 52
2019-06-20 14:00:00 23.8 8 Este 16 Sudeste 0 -- -- 53
2019-06-20 13:00:00 22.8 8 Nordeste 14 Nordeste 0 -- -- 58
2019-06-20 12:00:00 19.9 3 Noroeste 12 Noroeste 0 -- -- 65
2019-06-20 11:00:00 18.4 4 Nordeste 9 Nordeste 0 -- -- 68
2019-06-20 10:00:00 16.9 0 Calma 8 Este 0 -- -- 71
2019-06-20 09:00:00 16 3 Sudeste 8 Este 0 -- -- 78
2019-06-20 08:00:00 14.7 3 Sudeste 4 Sur 0 -- -- 87
2019-06-20 07:00:00 13.3 2 Sur 5 Oeste 0 -- -- 90
2019-06-20 06:00:00 13.2 3 Oeste 5 Sudoeste 0 -- -- 90
2019-06-20 05:00:00 13.6 0 Calma 4 Sudeste 0 -- -- 89
2019-06-20 04:00:00 13.8 0 Calma 10 Noroeste 0 -- -- 89
2019-06-20 03:00:00 15.1 2 Nordeste 9 Sudoeste 0 -- -- 85
2019-06-20 02:00:00 15.1 3 Nordeste 10 Este 0 -- -- 87
2019-06-20 01:00:00 16.5 4 Noroeste 13 Oeste 0.6 -- -- 81
2019-06-20 00:00:00 17.1 11 Oeste 21 Noroeste 0 -- -- 75
2019-06-19 23:00:00 18.9 22 Oeste 32 Noroeste 0 -- -- 65
2019-06-19 22:00:00 21 6 Oeste 13 Noroeste 0 -- -- 54
2019-06-19 21:00:00 23.1 8 Noroeste 13 Noroeste 0 -- -- 48
2019-06-19 20:00:00 24.9 6 Noroeste 14 Norte 0 -- -- 41
2019-06-19 19:00:00 25.6 6 Norte 20 Norte 0 -- -- 39
2019-06-19 18:00:00 26.2 9 Oeste 27 Oeste 0 -- -- 39
2019-06-19 17:00:00 25.4 15 Oeste 29 Oeste 0 -- -- 38
2019-06-19 16:00:00 26.2 8 Sudoeste 31 Oeste 0 -- -- 38
2019-06-19 15:00:00 25.8 12 Oeste -- -- -- -- -- 41
2019-06-19 14:00:00 24.7 9 Oeste 27 Sudoeste 0 -- -- 38
2019-06-19 13:00:00 25.6 16 Sudoeste 27 Oeste 0 -- -- 32
2019-06-19 12:00:00 -- -- -- -- -- -- -- -- --
2019-06-19 11:00:00 -- -- -- -- -- -- -- -- --
2019-06-19 10:00:00 -- -- -- -- -- -- -- -- --
2019-06-19 09:00:00 -- -- -- -- -- -- -- -- --
2019-06-19 08:00:00 -- -- -- -- -- -- -- -- --
2019-06-19 07:00:00 -- -- -- -- -- -- -- -- --
2019-06-19 06:00:00 -- -- -- -- -- -- -- -- --
2019-06-19 05:00:00 -- -- -- -- -- -- -- -- --
2019-06-19 04:00:00 -- -- -- -- -- -- -- -- --
2019-06-19 03:00:00 -- -- -- -- -- -- -- -- --
2019-06-19 02:00:00 -- -- -- -- -- -- -- -- --
2019-06-19 01:00:00 -- -- -- -- -- -- -- -- --
2019-06-19 00:00:00 -- -- -- -- -- -- -- -- --
2019-06-18 23:00:00 -- -- -- -- -- -- -- -- --
2019-06-18 22:00:00 -- -- -- -- -- -- -- -- --
2019-06-18 21:00:00 -- -- -- -- -- -- -- -- --
2019-06-18 20:00:00 -- -- -- -- -- -- -- -- --
2019-06-18 19:00:00 29.7 20 Sur 31 Sur 0 -- -- 25
2019-06-18 18:00:00 28.9 15 Sur 35 Sudeste 0 -- -- 25
2019-06-18 17:00:00 30.5 16 Sur 38 Sur 0 -- -- 23
2019-06-18 16:00:00 29.9 18 Sur 34 Sur 0 -- -- 26
2019-06-18 15:00:00 29.5 14 Sur 33 Sur 0 -- -- 27
2019-06-18 14:00:00 28.2 17 Sur 36 Sudoeste 0 -- -- 31
2019-06-18 13:00:00 25.2 21 Sur 41 Sur 0 -- -- 34
2019-06-18 12:00:00 25.9 27 Sur 44 Sur 0 -- -- 32
2019-06-18 11:00:00 24.5 22 Sur 34 Sudoeste 0 -- -- 37
2019-06-18 10:00:00 22.8 20 Sur 28 Sur 0 -- -- 44
2019-06-18 09:00:00 20.6 14 Sur 34 Sudoeste 0 -- -- 47
2019-06-18 08:00:00 18.5 24 Sudoeste 37 Sur 0 -- -- 53
2019-06-18 07:00:00 19.4 26 Sur 36 Sur 0 -- -- 47
2019-06-18 06:00:00 19.6 21 Sur 32 Sur 0 -- -- 44
2019-06-18 05:00:00 20.5 26 Sur 37 Sur 0 -- -- 44
2019-06-18 04:00:00 21.4 18 Sudeste 32 Sudeste -- -- -- 39
2019-06-18 03:00:00 21.7 18 Sur 37 Sur 0 -- -- 40
2019-06-18 02:00:00 21.9 21 Sur 27 Sur 0 -- -- 41
2019-06-18 01:00:00 22.5 15 Sur 31 Sur 0 -- -- 40
2019-06-18 00:00:00 23.1 23 Sur 32 Sur 0 -- -- 41
2019-06-17 23:00:00 23.6 21 Sur 28 Sudoeste 0 -- -- 32
2019-06-17 22:00:00 24.9 16 Sur 19 Sur 0 -- -- 27
2019-06-17 21:00:00 25.3 6 Sur 15 Sur 0 -- -- 30
2019-06-17 20:00:00 27.8 10 Sudeste 17 Sur 0 -- -- 24
2019-06-17 19:00:00 29.4 4 Sur 22 Oeste 0 -- -- 21
2019-06-17 18:00:00 29.6 6 Oeste 23 Sur 0 -- -- 23
2019-06-17 17:00:00 29.5 10 Sur 27 Sur 0 -- -- 23
2019-06-17 16:00:00 28.9 11 Sur 28 Sur 0 -- -- 23
2019-06-17 15:00:00 28.4 12 Sur 27 Sur 0 -- -- 27
2019-06-17 14:00:00 27.5 13 Sudeste 29 Sur 0 -- -- 31
2019-06-17 13:00:00 26.5 14 Sur 28 Sur 0 -- -- 34
2019-06-17 12:00:00 25.7 12 Sur 25 Sur 0 -- -- 36
2019-06-17 11:00:00 23.5 14 Sur 24 Sur -- -- -- 38
2019-06-17 10:00:00 21.2 6 Este 14 Este 0 -- -- 53
2019-06-17 09:00:00 17.1 4 Nordeste 8 Este 0 -- -- 61
2019-06-17 08:00:00 14.2 3 Nordeste 9 Este 0 -- -- 65
2019-06-17 07:00:00 12.2 4 Norte 7 Nordeste 0 -- -- 69
2019-06-17 06:00:00 12.6 2 Oeste 5 Sudoeste 0 -- -- 67
2019-06-17 05:00:00 13.7 0 Calma 5 Sudeste 0 -- -- 62
2019-06-17 04:00:00 14.4 0 Calma 5 Noroeste 0 -- -- 59
2019-06-17 03:00:00 15.1 3 Oeste 6 Noroeste 0 -- -- 57
2019-06-17 02:00:00 16.6 4 Noroeste 10 Sudeste 0 -- -- 49
2019-06-17 01:00:00 17.2 3 Nordeste 8 Nordeste 0 -- -- 46
2019-06-17 00:00:00 18.6 0 Calma 7 Noroeste 0 -- -- 41
2019-06-16 23:00:00 20.1 2 Sudeste 10 Sudoeste 0 -- -- 36
2019-06-16 22:00:00 20.1 9 Sur 16 Sudoeste 0 -- -- 37
2019-06-16 21:00:00 23.4 9 Sudoeste 12 Sudoeste 0 -- -- 33
2019-06-16 20:00:00 25.5 3 Sudeste 13 Sudeste 0 -- -- 26
2019-06-16 19:00:00 26.4 6 Sur 15 Sur 0 -- -- 26
2019-06-16 18:00:00 26.5 7 Sur 24 Sudoeste 0 -- -- 28
2019-06-16 17:00:00 26.1 13 Sudoeste 24 Sur 0 -- -- 28
2019-06-16 16:00:00 25.7 11 Sudeste 24 Sudoeste 0 -- -- 30
2019-06-16 15:00:00 25.2 10 Sudoeste 25 Sur 0 -- -- 32
2019-06-16 14:00:00 24.5 10 Sudeste 22 Sur 0 -- -- 32
2019-06-16 13:00:00 23.7 10 Sudeste 24 Este 0 -- -- 35
2019-06-16 12:00:00 22.5 12 Sudeste 21 Sudeste 0 -- -- 40
2019-06-16 11:00:00 20.4 12 Sudeste 20 Sudeste 0 -- -- 44
2019-06-16 10:00:00 14.7 4 Norte 8 Norte 0 -- -- 69
2019-06-16 09:00:00 12 4 Nordeste 8 Nordeste 0 -- -- 79
2019-06-16 08:00:00 10.3 2 Norte 6 Sudeste 0 -- -- 80
2019-06-16 07:00:00 7.6 0 Calma 6 Noroeste 0 -- -- 87
2019-06-16 06:00:00 7.5 2 Norte 4 Nordeste 0 -- -- 86
2019-06-16 05:00:00 7.8 2 Nordeste 4 Nordeste 0 -- -- 86
2019-06-16 04:00:00 8.5 0 Calma 5 Oeste 0 -- -- 84
2019-06-16 03:00:00 8.8 4 Este 10 Oeste 0 -- -- 83
2019-06-16 02:00:00 10.1 8 Sudoeste 11 Sudoeste 0 -- -- 77
2019-06-16 01:00:00 10.6 4 Sudoeste 9 Sudoeste 0 -- -- 75
2019-06-16 00:00:00 12.2 4 Sur 8 Sur 0 -- -- 69
2019-06-15 23:00:00 12.6 4 Sudoeste 17 Noroeste 0 -- -- 68
2019-06-15 22:00:00 13.8 6 Noroeste 19 Norte 0 -- -- 65
2019-06-15 21:00:00 17.1 14 Norte 26 Norte 0 -- -- 53
2019-06-15 20:00:00 18.8 20 Norte 31 Norte 0 -- -- 48
2019-06-15 19:00:00 20 22 Norte 31 Noroeste 0 -- -- 47
2019-06-15 18:00:00 21.2 18 Noroeste 34 Oeste 0 -- -- 43
2019-06-15 17:00:00 21.4 18 Oeste 33 Noroeste 0 -- -- 36
2019-06-15 16:00:00 21.2 18 Noroeste 41 Oeste 0 -- -- 38
2019-06-15 15:00:00 20.6 18 Noroeste 30 Noroeste 0 -- -- 40
2019-06-15 14:00:00 20.2 19 Noroeste 33 Noroeste 0 -- -- 43
2019-06-15 13:00:00 20.3 15 Noroeste 28 Noroeste 0 -- -- 46
2019-06-15 12:00:00 18.7 10 Norte 18 Norte 0 -- -- 57
2019-06-15 11:00:00 17 6 Nordeste 12 Oeste 0 -- -- 66
2019-06-15 10:00:00 15.3 3 Norte 11 Este 0 -- -- 67
2019-06-15 09:00:00 14.1 6 Este 10 Este 0 -- -- 77
2019-06-15 08:00:00 10.9 0 Calma 5 Sudeste 0 -- -- 91
2019-06-15 07:00:00 10 2 Norte 11 Noroeste 0 -- -- 93
2019-06-15 06:00:00 10.8 10 Oeste 16 Oeste 0 -- -- 92
2019-06-15 05:00:00 11.4 3 Sur 6 Sudeste 0 -- -- 89
2019-06-15 04:00:00 11.6 4 Sudoeste 6 Este 0 -- -- 92
2019-06-15 03:00:00 11.1 6 Este 8 Este 0 -- -- 90
2019-06-15 02:00:00 12.4 5 Sudeste 11 Sudeste 0 -- -- 86
2019-06-15 01:00:00 13.7 4 Sudeste 7 Sudeste 0 -- -- 82
2019-06-15 00:00:00 15.4 4 Sudeste 8 Sudeste 0 -- -- 77
2019-06-14 23:00:00 17 2 Sur 17 Noroeste 0 -- -- 71
2019-06-14 22:00:00 19.9 11 Sudoeste 13 Sudoeste 0 -- -- 51
2019-06-14 21:00:00 22.8 7 Sudoeste 11 Sur 0 -- -- 48
2019-06-14 20:00:00 24.1 6 Sur 14 Sudeste 0 -- -- 40
2019-06-14 19:00:00 23.4 13 Sudeste 23 Sudeste 0 -- -- 46
2019-06-14 18:00:00 23.4 12 Este 17 Este 0 -- -- 44
2019-06-14 17:00:00 22.7 11 Sudeste 23 Sudeste 0 -- -- 51
2019-06-14 16:00:00 20.9 6 Nordeste 15 Oeste 0 -- -- 64
2019-06-14 15:00:00 18.4 4 Norte 14 Este 0 -- -- 69
2019-06-14 14:00:00 16.2 10 Este 22 Este 1.6 -- -- 81
2019-06-14 13:00:00 17 4 Este 17 Oeste 0 -- -- 67
2019-06-14 12:00:00 16.6 8 Noroeste 12 Noroeste 0 -- -- 67
2019-06-14 11:00:00 15.4 6 Sudeste 8 Sudeste 0 -- -- 72
2019-06-14 10:00:00 14.8 4 Este 10 Este 0 -- -- 74
2019-06-14 09:00:00 13.9 4 Este 10 Nordeste 0 -- -- 77
2019-06-14 08:00:00 13.2 5 Sudeste 9 Sudeste 0 -- -- 78
2019-06-14 07:00:00 12.2 8 Sudeste 12 Sudeste 0 -- -- 81
2019-06-14 06:00:00 13.3 3 Sudeste 13 Noroeste 0 -- -- 71
2019-06-14 05:00:00 15.3 6 Norte 14 Sudoeste 0 -- -- 59
2019-06-14 04:00:00 16.3 8 Sur 18 Sur 0 -- -- 51
2019-06-14 03:00:00 16.2 5 Oeste 24 Sur 0 -- -- 52
2019-06-14 02:00:00 17.3 20 Sur 33 Sur 0 -- -- 51
2019-06-14 01:00:00 17.6 17 Sudeste 33 Sudeste 0 -- -- 49
2019-06-14 00:00:00 17.7 23 Sur 33 Sur 0 -- -- 50
2019-06-13 23:00:00 18.3 19 Sur 39 Sur 0 -- -- 49
2019-06-13 22:00:00 19.1 27 Sur 49 Sur 0 -- -- 48
2019-06-13 21:00:00 21.2 30 Sur 47 Sur 0 -- -- 48
2019-06-13 20:00:00 23.3 23 Sur 40 Sur 0 -- -- 36
2019-06-13 19:00:00 23.4 24 Sur 47 Sudeste 0 -- -- 37
2019-06-13 18:00:00 24 26 Sudeste 49 Sudeste 0 -- -- 39
2019-06-13 17:00:00 24.6 18 Sur 43 Sudeste 0 -- -- 40
2019-06-13 16:00:00 23.7 19 Sudeste 41 Sudoeste 0 -- -- 44
2019-06-13 15:00:00 22.9 24 Sur 43 Sur 0 -- -- 40
2019-06-13 14:00:00 21.2 29 Sur 43 Sur 0 -- -- 45
2019-06-13 13:00:00 19.6 27 Sur 43 Sur 0 -- -- 49
2019-06-13 12:00:00 18.5 27 Sur 40 Sur 0 -- -- 51
2019-06-13 11:00:00 18.1 22 Sur 33 Sur 0 -- -- 51
2019-06-13 10:00:00 16.9 14 Sur 44 Sudeste 0 -- -- 47
2019-06-13 09:00:00 14.4 26 Sur 41 Sur 0 -- -- 46
2019-06-13 08:00:00 12.7 23 Sur 37 Sur 0 -- -- 49
2019-06-13 07:00:00 12.1 29 Sur 39 Sur 0 -- -- 50
2019-06-13 06:00:00 12 26 Sur 41 Sur 0 -- -- 53
2019-06-13 05:00:00 12.3 19 Sur 30 Sudeste 0 -- -- 52
2019-06-13 04:00:00 12.2 17 Sudeste 32 Sudeste 0 -- -- 53
2019-06-13 03:00:00 12.4 17 Sudeste 36 Sudeste 0 -- -- 52
2019-06-13 02:00:00 12.7 22 Sur 30 Sur 0 -- -- 50
2019-06-13 01:00:00 13.3 17 Sur 23 Sur 0 -- -- 48
2019-06-13 00:00:00 13.9 18 Sur 23 Sur 0 -- -- 46
2019-06-12 23:00:00 14.2 18 Sur 29 Sur 0 -- -- 46
2019-06-12 22:00:00 14.3 9 Sur 12 Sudoeste 0 -- -- 47
2019-06-12 21:00:00 16.8 4 Sudoeste 13 Nordeste 0 -- -- 44
2019-06-12 20:00:00 18.6 9 Este 13 Este 0 -- -- 38
2019-06-12 19:00:00 17.9 8 Este 15 Este 0 -- -- 36
2019-06-12 18:00:00 18.6 11 Este 27 Este 0 -- -- 36
2019-06-12 17:00:00 18.2 11 Este 21 Sudeste 0 -- -- 35
2019-06-12 16:00:00 17.8 9 Noroeste 24 Sudeste 0 -- -- 36
2019-06-12 15:00:00 16.1 9 Nordeste 16 Nordeste 0 -- -- 43
2019-06-12 14:00:00 15.5 7 Nordeste 19 Nordeste 0 -- -- 46
2019-06-12 13:00:00 15.4 9 Noroeste 19 Este 0 -- -- 42
2019-06-12 12:00:00 14.7 7 Nordeste 18 Nordeste 0 -- -- 44
2019-06-12 11:00:00 12.6 6 Este 15 Este 0 -- -- 54
2019-06-12 10:00:00 10.7 4 Este 10 Nordeste 0 -- -- 65
2019-06-12 09:00:00 7.3 3 Oeste 6 Norte 0 -- -- 84
2019-06-12 08:00:00 5.3 0 Calma 6 Oeste 0 -- -- 86
2019-06-12 07:00:00 3.4 4 Sudoeste 5 Sudoeste 0 -- -- 92
2019-06-12 06:00:00 3.5 2 Oeste 5 Oeste 0 -- -- 88
2019-06-12 05:00:00 4.2 3 Oeste 7 Oeste 0 -- -- 84
2019-06-12 04:00:00 5.2 2 Noroeste 5 Sudoeste 0 -- -- 82
2019-06-12 03:00:00 5.6 0 Calma 9 Noroeste 0 -- -- 84
2019-06-12 02:00:00 6.5 6 Noroeste 10 Noroeste 0 -- -- 82
2019-06-12 01:00:00 7.3 4 Noroeste 10 Noroeste 0 -- -- 79
2019-06-12 00:00:00 6.8 6 Noroeste 14 Noroeste 0 -- -- 80
2019-06-11 23:00:00 8.2 10 Noroeste 25 Norte 0 -- -- 74
2019-06-11 22:00:00 9.4 17 Norte 36 Norte 0 -- -- 70
2019-06-11 21:00:00 9.7 21 Noroeste 33 Noroeste 0 -- -- 69
2019-06-11 20:00:00 12 23 Norte 43 Norte 0 -- -- 57
2019-06-11 19:00:00 13.2 27 Norte 51 Noroeste 0 -- -- 55
2019-06-11 18:00:00 14.3 26 Noroeste 48 Noroeste 0 -- -- 49
2019-06-11 17:00:00 14.2 28 Noroeste 48 Noroeste 0 -- -- 54
2019-06-11 16:00:00 14.7 34 Noroeste 48 Noroeste 0 -- -- 54
2019-06-11 15:00:00 13.8 18 Noroeste 41 Noroeste 0 -- -- 54
2019-06-11 14:00:00 12.4 37 Noroeste 53 Norte 0 -- -- 66
2019-06-11 13:00:00 13.1 32 Noroeste 46 Noroeste 0 -- -- 57
2019-06-11 12:00:00 13.1 22 Noroeste 36 Noroeste 0 -- -- 61
2019-06-11 11:00:00 11.3 22 Noroeste 33 Oeste 0 -- -- 71
2019-06-11 10:00:00 9.3 16 Noroeste 24 Noroeste 0 -- -- 82
2019-06-11 09:00:00 8.4 12 Noroeste 22 Noroeste 0 -- -- 82
2019-06-11 08:00:00 7.9 12 Noroeste 18 Oeste 0 -- -- 88
2019-06-11 07:00:00 7.5 3 Noroeste 6 Nordeste 0.2 -- -- 89
2019-06-11 06:00:00 7.7 3 Oeste 5 Noroeste 0 -- -- 88
2019-06-11 05:00:00 8 4 Norte 10 Noroeste 0 -- -- 83
2019-06-11 04:00:00 8.8 3 Norte 9 Norte 0.2 -- -- 80
2019-06-11 03:00:00 9.7 0 Calma 9 Noroeste 0.2 -- -- 72
2019-06-11 02:00:00 10.1 3 Norte 8 Noroeste 0 -- -- 64
2019-06-11 01:00:00 10.5 5 Noroeste 18 Norte 0 -- -- 65
2019-06-11 00:00:00 10.7 10 Noroeste 31 Noroeste 0 -- -- 63
2019-06-10 23:00:00 10.7 19 Noroeste 40 Noroeste 0 -- -- 68
2019-06-10 22:00:00 10.8 24 Noroeste 40 Noroeste 0 -- -- 69
2019-06-10 21:00:00 11.1 20 Noroeste 35 Noroeste 0 -- -- 69
2019-06-10 20:00:00 12.1 24 Noroeste 35 Noroeste 0 -- -- 67
2019-06-10 19:00:00 13.8 24 Norte 36 Norte 0 -- -- 59
2019-06-10 18:00:00 16.3 21 Noroeste 35 Noroeste 0 -- -- 53
2019-06-10 17:00:00 17.6 25 Noroeste 36 Noroeste 0 -- -- 51
2019-06-10 16:00:00 18.3 23 Noroeste 39 Oeste 0 -- -- 54
2019-06-10 15:00:00 17.8 22 Noroeste 32 Noroeste 0 -- -- 53
2019-06-10 14:00:00 18 19 Noroeste 33 Noroeste 0 -- -- 53
2019-06-10 13:00:00 17.3 20 Noroeste 32 Noroeste 0 -- -- 53
2019-06-10 12:00:00 16.6 18 Noroeste 30 Oeste 0 -- -- 57
2019-06-10 11:00:00 15.1 16 Noroeste 27 Noroeste 0 -- -- 64
2019-06-10 10:00:00 13.4 12 Norte 21 Norte 0 -- -- 68
2019-06-10 09:00:00 12.3 4 Norte 8 Norte 0 -- -- 76
2019-06-10 08:00:00 11.8 3 Sudeste 6 Sudeste 0 -- -- 77
2019-06-10 07:00:00 9.7 3 Norte 8 Nordeste 0 -- -- 82
2019-06-10 06:00:00 10 4 Sur 5 Oeste 0 -- -- 82
2019-06-10 05:00:00 10.3 3 Oeste 12 Noroeste 0 -- -- 83
2019-06-10 04:00:00 10.9 9 Noroeste 17 Noroeste 0 -- -- 83
2019-06-10 03:00:00 11 6 Noroeste 20 Oeste 0 -- -- 86
2019-06-10 02:00:00 11.9 15 Noroeste 27 Noroeste 0 -- -- 81
2019-06-10 01:00:00 12.5 14 Noroeste 23 Noroeste 0 -- -- 79
2019-06-10 00:00:00 13.3 8 Noroeste 23 Noroeste 0 -- -- 77
2019-06-09 23:00:00 13 12 Noroeste 24 Norte 0 -- -- 79
2019-06-09 22:00:00 14.7 13 Norte 27 Norte 0 -- -- 73
2019-06-09 21:00:00 17.5 17 Norte 32 Norte 0 -- -- 65
2019-06-09 20:00:00 21.1 23 Norte 39 Norte 0 -- -- 55
2019-06-09 19:00:00 24.3 18 Norte 26 Norte 0 -- -- 43
2019-06-09 18:00:00 25.3 11 Noroeste 17 Noroeste 0 -- -- 36
2019-06-09 17:00:00 24.6 8 Noroeste 17 Oeste 0 -- -- 31
2019-06-09 16:00:00 24.9 6 Sur 18 Sur 0 -- -- 36
2019-06-09 15:00:00 24.8 8 Oeste 26 Sudoeste 0 -- -- 35
2019-06-09 14:00:00 24 12 Sudeste 22 Sudoeste 0 -- -- 40
2019-06-09 13:00:00 22.2 13 Sur 27 Sudoeste 0 -- -- 38
2019-06-09 12:00:00 20.9 18 Sur 29 Sur 0 -- -- 43
2019-06-09 11:00:00 19.8 14 Sur 21 Sur 0 -- -- 43
2019-06-09 10:00:00 17.9 11 Sur 17 Sur 0 -- -- 53
2019-06-09 09:00:00 15.4 6 Sudeste 21 Sudeste 0 -- -- 67
2019-06-09 08:00:00 15.9 13 Sur 18 Sur 0 -- -- 53
2019-06-09 07:00:00 15.1 12 Sur 19 Sur 0 -- -- 55
2019-06-09 06:00:00 15.1 8 Sudoeste 28 Sur 0 -- -- 57
2019-06-09 05:00:00 15.2 18 Sur 33 Sur 0 -- -- 57
2019-06-09 04:00:00 15.3 22 Sur 37 Sur 0 -- -- 55
2019-06-09 03:00:00 15.7 24 Sur 39 Sur 0 -- -- 53
2019-06-09 02:00:00 16.2 26 Sur 38 Sur 0 -- -- 53
2019-06-09 01:00:00 16.6 21 Sur 30 Sur 0 -- -- 53
2019-06-09 00:00:00 17.1 17 Sur 37 Sudeste 0 -- -- 48
2019-06-08 23:00:00 17.6 19 Sur 43 Sur 0 -- -- 49
2019-06-08 22:00:00 18.4 28 Sur 42 Sur 0 -- -- 45
2019-06-08 21:00:00 20 17 Sudeste 32 Sudeste 0 -- -- 45
2019-06-08 20:00:00 20.9 16 Sur 33 Sur 0 -- -- 39
2019-06-08 19:00:00 21.5 20 Sudoeste 35 Sudoeste 0 -- -- 38
2019-06-08 18:00:00 22.9 18 Sur 31 Sur 0 -- -- 37
2019-06-08 17:00:00 23.1 20 Sur 36 Sur 0 -- -- 37
2019-06-08 16:00:00 22.9 16 Sudoeste 28 Sur 0 -- -- 36
2019-06-08 15:00:00 22.7 15 Sur 32 Sur 0 -- -- 34
2019-06-08 14:00:00 21.5 17 Sur 33 Sur 0 -- -- 36
2019-06-08 13:00:00 20.3 18 Sur 32 Sur 0 -- -- 35
2019-06-08 12:00:00 19.3 15 Sudeste 25 Sur 0 -- -- 41
2019-06-08 11:00:00 16.7 14 Sur 22 Sur 0 -- -- 44
2019-06-08 10:00:00 13.2 5 Este 9 Nordeste 0 -- -- 68
2019-06-08 09:00:00 9.7 3 Nordeste 8 Este 0 -- -- 78
2019-06-08 08:00:00 7.5 0 Calma 5 Este 0 -- -- 89
2019-06-08 07:00:00 5.8 0 Calma 7 Sur 0 -- -- 87
2019-06-08 06:00:00 5.3 2 Este 6 Noroeste 0 -- -- 90
2019-06-08 05:00:00 6 4 Oeste 5 Oeste 0 -- -- 85
2019-06-08 04:00:00 6.4 4 Sudoeste 8 Sudeste 0 -- -- 84
2019-06-08 03:00:00 7.2 5 Noroeste 10 Oeste 0 -- -- 83
2019-06-08 02:00:00 8 8 Oeste 13 Sudoeste 0 -- -- 80
2019-06-08 01:00:00 8.7 4 Noroeste 8 Oeste 0 -- -- 79
2019-06-08 00:00:00 10.2 4 Oeste 6 Oeste 0 -- -- 74
2019-06-07 23:00:00 11.9 3 Noroeste 17 Noroeste 0 -- -- 65
2019-06-07 22:00:00 12.4 14 Oeste 19 Oeste 0 -- -- 65
2019-06-07 21:00:00 16.1 11 Noroeste 19 Noroeste 0 -- -- 48
2019-06-07 20:00:00 17.7 15 Noroeste 24 Noroeste 0 -- -- 37
2019-06-07 19:00:00 18.3 13 Norte 27 Norte 0 -- -- 33
2019-06-07 18:00:00 18.3 14 Noroeste 27 Oeste 0 -- -- 38
2019-06-07 17:00:00 18.6 16 Noroeste 31 Noroeste 0 -- -- 37
2019-06-07 16:00:00 18 19 Oeste 34 Noroeste 0 -- -- 38
2019-06-07 15:00:00 15.9 14 Norte 33 Oeste 0 -- -- 44
2019-06-07 14:00:00 16.8 17 Noroeste 28 Noroeste 0 -- -- 44
2019-06-07 13:00:00 15.8 16 Noroeste 33 Noroeste 0 -- -- 45
2019-06-07 12:00:00 15 11 Noroeste 27 Oeste 0.2 -- -- 50
2019-06-07 11:00:00 14.2 4 Nordeste 18 Este 0 -- -- 63
2019-06-07 10:00:00 12.4 8 Este 18 Este 0 -- -- 74
2019-06-07 09:00:00 9.6 9 Sudeste 17 Noroeste 0 -- -- 90
2019-06-07 08:00:00 11.1 8 Norte 36 Sur 2.8 -- -- 87
2019-06-07 07:00:00 12.8 23 Sur 40 Sur 0.2 -- -- 84
2019-06-07 06:00:00 13.2 17 Sur 49 Sur 0.6 -- -- 82
2019-06-07 05:00:00 14.7 22 Sudeste 50 Sudeste 0 -- -- 71
2019-06-07 04:00:00 15 24 Sur 56 Sudeste 0 -- -- 66
2019-06-07 03:00:00 15.2 26 Sudeste 49 Sudeste 0 -- -- 64
2019-06-07 02:00:00 15.7 23 Sur 53 Sudeste 0 -- -- 59
2019-06-07 01:00:00 16.1 19 Sudeste 50 Sudeste 0 -- -- 55
2019-06-07 00:00:00 15.8 25 Sudeste 42 Sudeste 0 -- -- 56
2019-06-06 23:00:00 16.3 25 Sudeste 46 Sudeste 0 -- -- 53
2019-06-06 22:00:00 16.5 27 Sudeste 49 Sudeste 0 -- -- 53
2019-06-06 21:00:00 17.7 30 Sudeste 61 Sudeste 0 -- -- 52
2019-06-06 20:00:00 19 27 Sudeste 60 Sudeste 0 -- -- 49
2019-06-06 19:00:00 19.5 38 Sudeste 63 Sudeste 0 -- -- 47
2019-06-06 18:00:00 20.7 30 Sudeste 63 Sudeste 0 -- -- 40
2019-06-06 17:00:00 20.6 38 Sudeste 56 Sudeste 0 -- -- 37
2019-06-06 16:00:00 20.5 26 Sur 46 Sur 0 -- -- 36
2019-06-06 15:00:00 19.4 24 Sur 39 Sur 0 -- -- 38
2019-06-06 14:00:00 19.4 19 Sur 42 Sudeste 0 -- -- 42
2019-06-06 13:00:00 18 20 Sur 38 Sudeste 0 -- -- 48
2019-06-06 12:00:00 16.4 21 Sur 33 Sur 0 -- -- 55
2019-06-06 11:00:00 15.9 17 Sur 28 Sur 0 -- -- 53
2019-06-06 10:00:00 13.3 4 Sudeste 17 Sur 0 -- -- 69
2019-06-06 09:00:00 9.7 6 Sudeste 13 Sur 0 -- -- 83
2019-06-06 08:00:00 7.8 3 Nordeste 8 Este 0 -- -- 90
2019-06-06 07:00:00 7 3 Noroeste 6 Sudoeste 0 -- -- 89
2019-06-06 06:00:00 6.8 4 Este 6 Sudoeste 0 -- -- 89
2019-06-06 05:00:00 7.2 6 Sudeste 8 Sudeste 0 -- -- 87
2019-06-06 04:00:00 7 3 Norte 7 Noroeste 0 -- -- 89
2019-06-06 03:00:00 7.9 6 Sudoeste 9 Sudoeste 0 -- -- 82
2019-06-06 02:00:00 8 0 Calma 5 Norte 0 -- -- 81
2019-06-06 01:00:00 8 3 Oeste 8 Sudoeste 0 -- -- 82
2019-06-06 00:00:00 8.4 4 Sudeste 7 Sudeste 0 -- -- 79
2019-06-05 23:00:00 8.6 4 Noroeste 25 Noroeste 0 -- -- 78
2019-06-05 22:00:00 9.3 21 Noroeste 32 Noroeste 0 -- -- 77
2019-06-05 21:00:00 11.3 17 Noroeste 31 Norte 0 -- -- 71
2019-06-05 20:00:00 12.9 22 Norte 37 Noroeste 0 -- -- 64
2019-06-05 19:00:00 13.3 24 Norte 40 Noroeste 0 -- -- 62
2019-06-05 18:00:00 13.3 24 Noroeste 38 Noroeste 0 -- -- 67
2019-06-05 17:00:00 11.8 18 Norte 37 Noroeste 0 -- -- 74
2019-06-05 16:00:00 11.7 28 Noroeste 45 Noroeste 0 -- -- 75
2019-06-05 15:00:00 13.2 28 Noroeste 49 Noroeste 0 -- -- 65
2019-06-05 14:00:00 11.9 25 Noroeste 39 Noroeste 0 -- -- 76
2019-06-05 13:00:00 10.1 18 Norte 32 Norte 0 -- -- 83
2019-06-05 12:00:00 8.7 11 Noroeste 25 Oeste 0.8 -- -- 98
2019-06-05 11:00:00 8.2 9 Noroeste 28 Noroeste 5.8 -- -- 97
2019-06-05 10:00:00 9 32 Oeste 73 Oeste 7.2 -- -- 96
2019-06-05 09:00:00 10.5 10 Oeste 26 Oeste 3 -- -- 97
2019-06-05 08:00:00 10.1 7 Oeste 12 Este 5.6 -- -- 96
2019-06-05 07:00:00 10.5 10 Este 16 Oeste 4.6 -- -- 95
2019-06-05 06:00:00 11.1 15 Oeste 19 Oeste 0.2 -- -- 94
2019-06-05 05:00:00 11.4 8 Sudeste 15 Este 0.6 -- -- 93
2019-06-05 04:00:00 11.7 5 Este 9 Este 0 -- -- 89
2019-06-05 03:00:00 12.3 6 Noroeste 10 Nordeste 0 -- -- 91
2019-06-05 02:00:00 13.1 4 Este 6 Noroeste 0 -- -- 92
2019-06-05 01:00:00 13.9 5 Este 10 Este 0 -- -- 92
2019-06-05 00:00:00 14.4 3 Este 18 Nordeste 0.2 -- -- 91
2019-06-04 23:00:00 14.7 5 Oeste 14 Oeste 0 -- -- 90
2019-06-04 22:00:00 15.3 8 Norte 24 Norte 1.6 -- -- 88
2019-06-04 21:00:00 17.1 10 Noroeste 42 Norte 0 -- -- 74
2019-06-04 20:00:00 24.8 12 Oeste 37 Sur 0 -- -- 47
2019-06-04 19:00:00 27.5 24 Sur 37 Sur 0 -- -- 30
2019-06-04 18:00:00 29.1 19 Sur 39 Sur 0 -- -- 27
2019-06-04 17:00:00 28.3 20 Sudeste 34 Sur 0 -- -- 26
2019-06-04 16:00:00 28.4 18 Sur 41 Sudeste 0 -- -- 28
2019-06-04 15:00:00 28 21 Sudeste 38 Sur 0 -- -- 30
2019-06-04 14:00:00 26.9 24 Sur 42 Sur 0 -- -- 30
2019-06-04 13:00:00 26.1 27 Sur 41 Sur 0 -- -- 29
2019-06-04 12:00:00 24.5 24 Sur 39 Sur 0 -- -- 35
2019-06-04 11:00:00 21.8 29 Sur 42 Sur 0 -- -- 39
2019-06-04 10:00:00 20.2 29 Sur 42 Sur 0 -- -- 41
2019-06-04 09:00:00 19.5 23 Sur 39 Sur 0 -- -- 42
2019-06-04 08:00:00 18.2 19 Sudoeste 38 Sur 0 -- -- 42
2019-06-04 07:00:00 17.2 23 Sur 34 Sur 0 -- -- 45
2019-06-04 06:00:00 17.5 12 Sur 37 Sudoeste 0 -- -- 47
2019-06-04 05:00:00 18.4 23 Sur 46 Sur 0 -- -- 44
2019-06-04 04:00:00 18 31 Sur 43 Sur 0 -- -- 48
2019-06-04 03:00:00 19.3 27 Sur 39 Sur 0 -- -- 44
2019-06-04 02:00:00 19.6 27 Sur 37 Sur 0 -- -- 47
2019-06-04 01:00:00 20.4 28 Sur 38 Sur 0 -- -- 47
2019-06-04 00:00:00 22.1 26 Sur 37 Sur 0 -- -- 43
2019-06-03 23:00:00 22.9 21 Sur 33 Sur 0 -- -- 42
2019-06-03 22:00:00 23.9 22 Sur 32 Sudoeste 0 -- -- 40
2019-06-03 21:00:00 25.4 19 Sur 35 Sur 0 -- -- 36
2019-06-03 20:00:00 27.3 22 Sur 35 Sur 0 -- -- 31
2019-06-03 19:00:00 28.1 22 Sur 34 Sur 0 -- -- 31
2019-06-03 18:00:00 29.1 18 Sur 31 Sur 0 -- -- 28
2019-06-03 17:00:00 29.5 15 Sur 32 Sur 0 -- -- 28
2019-06-03 16:00:00 28.1 20 Sur 39 Sudoeste 0 -- -- 30
2019-06-03 15:00:00 27.7 21 Sur 35 Sur 0 -- -- 31
2019-06-03 14:00:00 26.7 14 Sudeste 25 Sur 0 -- -- 31
2019-06-03 13:00:00 25.4 15 Sur 26 Sur 0 -- -- 38
2019-06-03 12:00:00 23.7 16 Sur 28 Sur 0 -- -- 38
2019-06-03 11:00:00 21.3 14 Sur 26 Sur -- -- -- 43
2019-06-03 10:00:00 19.9 10 Sur 23 Sur 0 -- -- 50
2019-06-03 09:00:00 19.6 8 Sur 26 Sur 0 -- -- 53
2019-06-03 08:00:00 18.4 14 Sur 30 Sur 0 -- -- 50
2019-06-03 07:00:00 17.1 9 Sur 17 Este 0 -- -- 55
2019-06-03 06:00:00 17.4 8 Este 23 Sur 0 -- -- 57
2019-06-03 05:00:00 18.9 14 Sur 28 Sur 0.2 -- -- 52
2019-06-03 04:00:00 20.1 17 Sur 28 Sur 0 -- -- 48
2019-06-03 03:00:00 21 16 Sur 25 Sur 0 -- -- 46
2019-06-03 02:00:00 21.7 19 Sur 26 Sur 0 -- -- 43
2019-06-03 01:00:00 21.2 18 Sur 40 Sudoeste 0 -- -- 44
2019-06-03 00:00:00 21.6 16 Sudoeste 30 Sudoeste 0 -- -- 43
2019-06-02 23:00:00 24.3 15 Sur 26 Sur 0 -- -- 38
2019-06-02 22:00:00 23.9 3 Norte 10 Oeste 0 -- -- 40
2019-06-02 21:00:00 25.1 0 Calma 15 Sudoeste 0 -- -- 38
2019-06-02 20:00:00 27.5 10 Sudoeste 15 Sur 0 -- -- 32
2019-06-02 19:00:00 29.6 9 Sur 19 Sur 0 -- -- 27
2019-06-02 18:00:00 30.6 10 Sur 18 Sur 0 -- -- 26
2019-06-02 17:00:00 29.7 11 Sudeste 22 Sur 0 -- -- 29
2019-06-02 16:00:00 29.9 12 Sur 21 Sudeste 0 -- -- 30
2019-06-02 15:00:00 29 12 Sur 21 Sur 0 -- -- 29
2019-06-02 14:00:00 28.8 11 Sur 22 Sur 0 -- -- 27
2019-06-02 13:00:00 27.5 12 Sur 21 Sudoeste 0 -- -- 31
2019-06-02 12:00:00 26.1 13 Sur 22 Sur 0 -- -- 36
2019-06-02 11:00:00 23.9 14 Sur 21 Sur 0 -- -- 44
2019-06-02 10:00:00 22.5 10 Sur 18 Sur 0 -- -- 47
2019-06-02 09:00:00 19.2 9 Este 12 Sudeste 0 -- -- 60
2019-06-02 08:00:00 17.4 3 Este 14 Sudeste 0 -- -- 60
2019-06-02 07:00:00 15.1 3 Sudeste 6 Sudeste 0 -- -- 62
2019-06-02 06:00:00 15.6 5 Sudeste 18 Sur 0 -- -- 60
2019-06-02 05:00:00 17.6 14 Sur 21 Sur 0 -- -- 53
2019-06-02 04:00:00 17.8 9 Sur 23 Sur 0 -- -- 52
2019-06-02 03:00:00 18.5 12 Sudeste 25 Este 0 -- -- 52
2019-06-02 02:00:00 18 16 Este 24 Este 0 -- -- 55
2019-06-02 01:00:00 20 4 Norte 28 Sur 0 -- -- 48
2019-06-02 00:00:00 22.2 17 Sudoeste 29 Sudoeste 0 -- -- 41
2019-06-01 23:00:00 20.6 9 Sudoeste 14 Sur 0 -- -- 41
2019-06-01 22:00:00 21.5 10 Sudoeste 17 Sudoeste 0 -- -- 40
2019-06-01 21:00:00 24.6 10 Sudoeste 17 Sur 0 -- -- 36
2019-06-01 20:00:00 27.6 12 Sudoeste 21 Sur 0 -- -- 28
2019-06-01 19:00:00 28.5 11 Sur 22 Sur 0 -- -- 27
2019-06-01 18:00:00 28.1 13 Sudeste 22 Sur 0 -- -- 30
2019-06-01 17:00:00 28.4 8 Sudeste 17 Sudeste 0 -- -- 30
2019-06-01 16:00:00 27.8 4 Sudoeste 23 Sur 0 -- -- 28
2019-06-01 15:00:00 27.5 9 Sur 18 Sur 0 -- -- 31
2019-06-01 14:00:00 27 12 Sur 22 Sur 0 -- -- 33
2019-06-01 13:00:00 25.9 11 Sur 22 Sudoeste 0 -- -- 37
2019-06-01 12:00:00 25 10 Sur 22 Sur 0 -- -- 44
2019-06-01 11:00:00 23.5 13 Sur 23 Sur 0 -- -- 46
2019-06-01 10:00:00 21.4 7 Sur 12 Sudeste 0 -- -- 54
2019-06-01 09:00:00 18.6 4 Este 8 Sudeste 0 -- -- 63
2019-06-01 08:00:00 15.7 3 Este 9 Este 0 -- -- 67
2019-06-01 07:00:00 14 3 Nordeste 21 Sur 0 -- -- 70
2019-06-01 06:00:00 16.1 16 Sur 25 Este 0 -- -- 61
2019-06-01 05:00:00 17.3 14 Sudeste 29 Sudeste 0 -- -- 57
2019-06-01 04:00:00 17 14 Sudeste 25 Sudeste 0 -- -- 60
2019-06-01 03:00:00 17.6 15 Este 24 Sudeste 0 -- -- 59
2019-06-01 02:00:00 17.6 9 Este 19 Este 0 -- -- 59
2019-06-01 01:00:00 18.8 9 Sudeste 14 Sudeste 0 -- -- 50
2019-06-01 00:00:00 19 7 Sudoeste 11 Sudoeste 0 -- -- 45
2019-05-31 23:00:00 20.5 2 Oeste 17 Sudoeste 0 -- -- 49
2019-05-31 22:00:00 20.7 13 Sudoeste 17 Sudoeste 0 -- -- 52
2019-05-31 21:00:00 23.8 9 Oeste 14 Oeste 0 -- -- 49
2019-05-31 20:00:00 26.6 9 Noroeste 14 Noroeste 0 -- -- 42
2019-05-31 19:00:00 27 10 Noroeste 19 Oeste 0 -- -- 40
2019-05-31 18:00:00 27.1 14 Noroeste 25 Noroeste 0 -- -- 42
2019-05-31 17:00:00 26.8 11 Norte 20 Nordeste 0 -- -- 41
2019-05-31 16:00:00 26 10 Norte 19 Nordeste 0 -- -- 44
2019-05-31 15:00:00 25.1 6 Nordeste 20 Nordeste 0 -- -- 44
2019-05-31 14:00:00 24.1 8 Norte 17 Norte 0 -- -- 47
2019-05-31 13:00:00 23 8 Noroeste 14 Noroeste 0 -- -- 49
2019-05-31 12:00:00 21 4 Norte 10 Norte 0 -- -- 50
2019-05-31 11:00:00 18.8 4 Noroeste 8 Norte 0 -- -- 56
2019-05-31 10:00:00 15.6 3 Norte 6 Noroeste 0 -- -- 58
2019-05-31 09:00:00 13.2 3 Norte 6 Nordeste 0 -- -- 70
2019-05-31 08:00:00 11.2 0 Calma 6 Oeste 0 -- -- 78
2019-05-31 07:00:00 8.8 2 Este 5 Nordeste 0 -- -- 85
2019-05-31 06:00:00 9.5 3 Oeste 5 Oeste 0 -- -- 83
2019-05-31 05:00:00 10.7 3 Norte 5 Noroeste 0 -- -- 78
2019-05-31 04:00:00 11.1 5 Noroeste 5 Noroeste 0 -- -- 77
2019-05-31 03:00:00 12.2 2 Sudoeste 5 Noroeste 0 -- -- 72
2019-05-31 02:00:00 12.9 2 Oeste 8 Sudoeste 0 -- -- 71
2019-05-31 01:00:00 14 7 Sudoeste 9 Noroeste 0 -- -- 66
2019-05-31 00:00:00 14.9 7 Oeste 9 Oeste 0 -- -- 64
2019-05-30 23:00:00 16.9 3 Sudoeste 12 Noroeste 0 -- -- 57
2019-05-30 22:00:00 17.4 8 Oeste 27 Noroeste 0 -- -- 56
2019-05-30 21:00:00 21.1 16 Noroeste 32 Noroeste 0 -- -- 45
2019-05-30 20:00:00 23.8 22 Noroeste 35 Noroeste 0 -- -- 38
2019-05-30 19:00:00 26.6 18 Noroeste 28 Norte 0 -- -- 25
2019-05-30 18:00:00 27 14 Norte 26 Norte 0 -- -- 27
2019-05-30 17:00:00 26.2 15 Oeste 27 Oeste 0 -- -- 31
2019-05-30 16:00:00 25.2 16 Noroeste 29 Oeste 0 -- -- 39
2019-05-30 15:00:00 24.3 16 Noroeste 25 Noroeste 0 -- -- 42
2019-05-30 14:00:00 22.4 5 Noroeste 12 Norte 0 -- -- 42
2019-05-30 13:00:00 20.7 8 Noroeste 17 Norte 0 -- -- 45
2019-05-30 12:00:00 19.1 7 Norte 14 Noroeste 0 -- -- 51
2019-05-30 11:00:00 17.1 5 Este 10 Sudeste 0 -- -- 56
2019-05-30 10:00:00 14 4 Este 7 Este 0 -- -- 67
2019-05-30 09:00:00 10.2 3 Noroeste 7 Este 0 -- -- 79
2019-05-30 08:00:00 9 4 Este 6 Sudeste 0 -- -- 80
2019-05-30 07:00:00 6.7 2 Norte 4 Noroeste 0 -- -- 87
2019-05-30 06:00:00 6.6 2 Este 5 Oeste 0 -- -- 88
2019-05-30 05:00:00 6.9 2 Sudoeste 6 Sudoeste 0 -- -- 85
2019-05-30 04:00:00 7.7 3 Noroeste 5 Sudoeste 0 -- -- 81
2019-05-30 03:00:00 8.4 6 Sudoeste 8 Sudoeste 0 -- -- 78
2019-05-30 02:00:00 9.6 5 Sudoeste 9 Sur 0 -- -- 74
2019-05-30 01:00:00 9.7 4 Sur 10 Sudeste 0 -- -- 74
2019-05-30 00:00:00 10.1 6 Sur 9 Sudeste 0 -- -- 72
2019-05-29 23:00:00 11.1 4 Sur 13 Norte 0 -- -- 66
2019-05-29 22:00:00 11.7 11 Noroeste 31 Noroeste 0 -- -- 65
2019-05-29 21:00:00 13.5 23 Noroeste 45 Noroeste 0 -- -- 60
2019-05-29 20:00:00 14.7 35 Noroeste 51 Noroeste 0 -- -- 55
2019-05-29 19:00:00 15.5 33 Noroeste 55 Noroeste 0 -- -- 53
2019-05-29 18:00:00 15.9 36 Noroeste 55 Noroeste 0 -- -- 53
2019-05-29 17:00:00 16.7 37 Noroeste 57 Norte 0 -- -- 48
2019-05-29 16:00:00 16.5 36 Noroeste 57 Noroeste 0 -- -- 48
2019-05-29 15:00:00 16.4 30 Noroeste 52 Noroeste 0 -- -- 47
2019-05-29 14:00:00 15.8 33 Noroeste 52 Norte 0 -- -- 47
2019-05-29 13:00:00 14.9 32 Norte 48 Noroeste 0 -- -- 51
2019-05-29 12:00:00 14 31 Noroeste 51 Norte 0 -- -- 51
2019-05-29 11:00:00 13.2 31 Noroeste 52 Noroeste 0 -- -- 51
2019-05-29 10:00:00 12.2 30 Noroeste 48 Norte 0 -- -- 57
2019-05-29 09:00:00 11 26 Noroeste 40 Norte 0 -- -- 62
2019-05-29 08:00:00 9.6 23 Noroeste 36 Noroeste 0 -- -- 69
2019-05-29 07:00:00 8.4 24 Noroeste 35 Noroeste 0 -- -- 70
2019-05-29 06:00:00 8.3 24 Noroeste 41 Noroeste 0 -- -- 71
2019-05-29 05:00:00 8.4 23 Noroeste 43 Norte 0 -- -- 68
2019-05-29 04:00:00 8.6 24 Noroeste 41 Noroeste 0 -- -- 68
2019-05-29 03:00:00 8.5 24 Noroeste 46 Noroeste 0 -- -- 71
2019-05-29 02:00:00 8.7 32 Noroeste 51 Noroeste 0 -- -- 71
2019-05-29 01:00:00 8.7 31 Noroeste 49 Noroeste 0 -- -- 70
2019-05-29 00:00:00 8.7 27 Noroeste 44 Noroeste 0 -- -- 73
2019-05-28 23:00:00 8.8 27 Noroeste 48 Norte 0 -- -- 73
2019-05-28 22:00:00 8.9 28 Norte 49 Norte 0 -- -- 73
2019-05-28 21:00:00 10 31 Noroeste 54 Norte 0 -- -- 66
2019-05-28 20:00:00 11.9 33 Noroeste 56 Noroeste 0 -- -- 60
2019-05-28 19:00:00 12.5 33 Noroeste 53 Norte 0 -- -- 57
2019-05-28 18:00:00 13.2 32 Norte 56 Norte 0 -- -- 53
2019-05-28 17:00:00 12.1 40 Noroeste 59 Noroeste 0 -- -- 66
2019-05-28 16:00:00 14.3 35 Noroeste 54 Norte 0 -- -- 58
2019-05-28 15:00:00 15.3 40 Norte 60 Noroeste 0 -- -- 51
2019-05-28 14:00:00 14.7 33 Noroeste 57 Noroeste 0 -- -- 55
2019-05-28 13:00:00 13.8 40 Noroeste 58 Noroeste 0 -- -- 54
2019-05-28 12:00:00 13.3 37 Noroeste 58 Noroeste 0 -- -- 61
2019-05-28 11:00:00 13.2 36 Noroeste 56 Noroeste 0 -- -- 58
2019-05-28 10:00:00 12.5 36 Noroeste 54 Norte 0 -- -- 56
2019-05-28 09:00:00 11.1 33 Noroeste 48 Noroeste 0 -- -- 60
2019-05-28 08:00:00 10.3 30 Noroeste 47 Noroeste 0 -- -- 63
2019-05-28 07:00:00 9.2 29 Noroeste 45 Noroeste 0 -- -- 62
2019-05-28 06:00:00 8.8 22 Noroeste 36 Noroeste 0 -- -- 66
2019-05-28 05:00:00 9 20 Noroeste 38 Noroeste 0 -- -- 67
2019-05-28 04:00:00 9 23 Noroeste 42 Noroeste 0 -- -- 67
2019-05-28 03:00:00 9.5 27 Noroeste 43 Norte 0 -- -- 61
2019-05-28 02:00:00 10.1 27 Noroeste 41 Noroeste 0 -- -- 64
2019-05-28 01:00:00 10.8 21 Noroeste 36 Norte 0 -- -- 63
2019-05-28 00:00:00 11 24 Noroeste 61 Noroeste 0 -- -- 66
2019-05-27 23:00:00 11.4 35 Noroeste 51 Noroeste 0 -- -- 65
2019-05-27 22:00:00 12.5 31 Noroeste 57 Norte 0 -- -- 69
2019-05-27 21:00:00 14.3 27 Noroeste 47 Noroeste 0 -- -- 69
2019-05-27 20:00:00 16.4 30 Noroeste 53 Noroeste 0 -- -- 64
2019-05-27 19:00:00 16.9 33 Noroeste 56 Noroeste 0 -- -- 61
2019-05-27 18:00:00 17.9 37 Noroeste 59 Noroeste 0 -- -- 57
2019-05-27 17:00:00 19.2 34 Noroeste 60 Noroeste 0 -- -- 58
2019-05-27 16:00:00 18.2 29 Noroeste 48 Noroeste 0 -- -- 59
2019-05-27 15:00:00 19.5 24 Noroeste 38 Noroeste 0 -- -- 55
2019-05-27 14:00:00 20 18 Noroeste 32 Noroeste 0 -- -- 55
2019-05-27 13:00:00 18.5 19 Noroeste 31 Norte 0 -- -- 57
2019-05-27 12:00:00 15.9 18 Noroeste 27 Noroeste 0 -- -- 65
2019-05-27 11:00:00 15.4 16 Noroeste 28 Noroeste 0 -- -- 63
2019-05-27 10:00:00 13.7 5 Este 13 Este 0 -- -- 72
2019-05-27 09:00:00 12.6 6 Este 10 Este 0 -- -- 73
2019-05-27 08:00:00 10.6 6 Sudeste 9 Sudeste 0 -- -- 81
2019-05-27 07:00:00 8.6 7 Sur 10 Noroeste 0 -- -- 86
2019-05-27 06:00:00 7.3 3 Oeste 8 Noroeste 0 -- -- 86
2019-05-27 05:00:00 8.6 4 Sur 9 Sur 0 -- -- 84
2019-05-27 04:00:00 9 5 Sur 10 Sudoeste 0 -- -- 84
2019-05-27 03:00:00 8.8 5 Sur 8 Sudeste 0 -- -- 85
2019-05-27 02:00:00 9.4 5 Sudeste 8 Noroeste -- -- -- 82
2019-05-27 01:00:00 10 4 Noroeste 12 Oeste 0 -- -- 80
2019-05-27 00:00:00 10.3 8 Noroeste 17 Noroeste 0 -- -- 80
2019-05-26 23:00:00 11.3 15 Noroeste 28 Noroeste 0 -- -- 77
2019-05-26 22:00:00 12.4 21 Noroeste 33 Noroeste 0 -- -- 73
2019-05-26 21:00:00 14.4 26 Noroeste 44 Noroeste 0 -- -- 65
2019-05-26 20:00:00 16 29 Noroeste 44 Noroeste 0 -- -- 59
2019-05-26 19:00:00 17.2 28 Noroeste 44 Noroeste 0 -- -- 55
2019-05-26 18:00:00 17.6 33 Noroeste 50 Noroeste 0 -- -- 52
2019-05-26 17:00:00 17.5 38 Noroeste 51 Noroeste 0 -- -- 53
2019-05-26 16:00:00 17.6 34 Noroeste 44 Noroeste 0 -- -- 54
2019-05-26 15:00:00 17.3 33 Noroeste 44 Noroeste 0 -- -- 54
2019-05-26 14:00:00 16.9 28 Norte 47 Norte 0 -- -- 56
2019-05-26 13:00:00 16.5 28 Norte 46 Noroeste 0 -- -- 56
2019-05-26 12:00:00 15.9 31 Noroeste 45 Noroeste 0 -- -- 58
2019-05-26 11:00:00 15 26 Noroeste 40 Norte 0 -- -- 60
2019-05-26 10:00:00 13.8 22 Norte 33 Noroeste 0 -- -- 61
2019-05-26 09:00:00 11.9 4 Norte 10 Nordeste 0 -- -- 70
2019-05-26 08:00:00 9.9 4 Norte 9 Noroeste 0 -- -- 74
2019-05-26 07:00:00 7.7 5 Noroeste 14 Noroeste 0 -- -- 81
2019-05-26 06:00:00 7.8 8 Noroeste 19 Noroeste 0 -- -- 82
2019-05-26 05:00:00 8 9 Noroeste 15 Noroeste 0 -- -- 81
2019-05-26 04:00:00 8.1 9 Noroeste 16 Noroeste 0 -- -- 81
2019-05-26 03:00:00 8.5 13 Noroeste 27 Noroeste 0 -- -- 80
2019-05-26 02:00:00 9.1 15 Noroeste 27 Noroeste 0 -- -- 79
2019-05-26 01:00:00 9.8 15 Noroeste 33 Noroeste 0 -- -- 77
2019-05-26 00:00:00 10.3 20 Noroeste 35 Noroeste 0 -- -- 76